Time;durP1;ratioP1;P1;durP2;ratioP2;P2;SDS_P1;SDS_P2;PMS_P1;PMS_P2;Temp;Humidity;BMP_temperature;BMP_pressure;BME280_temperature;BME280_humidity;BME280_pressure;Samples;Min_cycle;Max_cycle;Signal;HPM_P1;HPM_P2
2023/01/18 00:00:28;;;;;;;;;25.00;22.00;;;;;;;;5099823;27;8762;-78
2023/01/18 00:02:56;;;;;;;;;25.00;25.00;;;;;;;;5101106;28;8896;-77
2023/01/18 00:05:24;;;;;;;;;33.33;32.00;;;;;;;;5100557;28;8871;-79
2023/01/18 00:07:53;;;;;;;;;30.33;24.33;;;;;;;;5100612;27;8872;-78
2023/01/18 00:10:22;;;;;;;;;28.00;25.00;;;;;;;;5102460;28;8876;-77
2023/01/18 00:12:50;;;;;;;;;36.33;29.67;;;;;;;;5102035;27;8854;-77
2023/01/18 00:15:17;;;;;;;;;37.67;33.00;;;;;;;;5103854;27;8842;-77
2023/01/18 00:17:50;;;;;;;;;39.67;37.00;;;;;;;;5110917;27;8876;-78
2023/01/18 00:20:19;;;;;;;;;39.33;32.67;;;;;;;;5100182;28;8880;-78
2023/01/18 00:22:46;;;;;;;;;32.33;30.33;;;;;;;;5101028;28;8841;-78
2023/01/18 00:25:16;;;;;;;;;36.67;31.00;;;;;;;;5100546;28;8834;-77
2023/01/18 00:27:46;;;;;;;;;40.33;35.00;;;;;;;;5102817;27;8885;-77
2023/01/18 00:30:16;;;;;;;;;37.33;32.00;;;;;;;;5093225;27;8888;-78
2023/01/18 00:32:43;;;;;;;;;30.67;28.00;;;;;;;;5127616;27;8881;-78
2023/01/18 00:35:11;;;;;;;;;34.00;33.33;;;;;;;;5100647;28;8833;-78
2023/01/18 00:37:39;;;;;;;;;38.67;32.33;;;;;;;;5099283;27;8847;-78
2023/01/18 00:40:08;;;;;;;;;37.67;34.33;;;;;;;;5100779;28;9634;-78
2023/01/18 00:45:23;;;;;;;;;32.33;32.33;;;;;;;;5100514;27;8845;-78
2023/01/18 00:47:50;;;;;;;;;31.33;27.33;;;;;;;;5098571;28;9653;-78
2023/01/18 00:50:18;;;;;;;;;31.00;28.67;;;;;;;;5102384;28;8951;-79
2023/01/18 00:52:45;;;;;;;;;26.33;26.33;;;;;;;;5104741;27;8848;-77
2023/01/18 00:55:14;;;;;;;;;30.00;29.00;;;;;;;;5102810;27;9647;-78
2023/01/18 00:57:43;;;;;;;;;33.33;30.00;;;;;;;;5103677;27;8848;-78
2023/01/18 01:00:13;;;;;;;;;38.00;30.33;;;;;;;;5103444;27;8849;-80
2023/01/18 01:02:41;;;;;;;;;31.00;27.00;;;;;;;;5100389;28;8858;-78
2023/01/18 01:08:02;;;;;;;;;27.33;24.33;;;;;;;;5104322;27;8814;-77
2023/01/18 01:10:30;;;;;;;;;32.33;28.00;;;;;;;;5101887;28;8986;-78
2023/01/18 01:26:42;;;;;;;;;34.00;27.67;;;;;;;;5102764;28;8833;-78
2023/01/18 01:29:11;;;;;;;;;31.33;26.67;;;;;;;;5101992;28;8914;-78
2023/01/18 01:31:39;;;;;;;;;23.00;23.00;;;;;;;;5102760;27;8778;-78
2023/01/18 01:34:07;;;;;;;;;19.67;19.67;;;;;;;;5103280;28;8877;-77
2023/01/18 01:36:34;;;;;;;;;29.67;27.33;;;;;;;;5100554;28;8865;-77
2023/01/18 01:39:02;;;;;;;;;23.00;21.33;;;;;;;;5101360;28;8858;-78
2023/01/18 01:41:31;;;;;;;;;35.33;31.00;;;;;;;;5099707;28;8870;-77
2023/01/18 01:43:59;;;;;;;;;24.33;22.00;;;;;;;;5102236;28;8829;-76
2023/01/18 01:46:44;;;;;;;;;28.33;26.00;;;;;;;;5102255;28;8888;-78
2023/01/18 01:49:14;;;;;;;;;33.67;33.33;;;;;;;;5105952;27;8841;-78
2023/01/18 01:51:43;;;;;;;;;22.67;22.67;;;;;;;;5103976;28;8849;-78
2023/01/18 01:54:14;;;;;;;;;31.33;31.33;;;;;;;;5103924;28;8877;-78
2023/01/18 01:56:42;;;;;;;;;34.00;29.00;;;;;;;;5132370;27;8858;-78
2023/01/18 01:59:11;;;;;;;;;30.33;25.33;;;;;;;;5101280;28;8849;-78
2023/01/18 02:01:42;;;;;;;;;24.33;20.33;;;;;;;;5134225;27;8806;-77
2023/01/18 02:04:11;;;;;;;;;27.00;21.67;;;;;;;;5102660;28;8865;-78
2023/01/18 02:06:39;;;;;;;;;21.00;21.00;;;;;;;;5102806;28;8854;-78
2023/01/18 02:09:09;;;;;;;;;29.33;24.67;;;;;;;;5103004;28;8853;-78
2023/01/18 02:11:36;;;;;;;;;28.67;25.33;;;;;;;;5096058;28;8854;-78
2023/01/18 02:14:06;;;;;;;;;27.00;22.67;;;;;;;;5086401;28;8961;-78
2023/01/18 02:16:43;;;;;;;;;30.33;29.00;;;;;;;;5082214;28;8850;-78
2023/01/18 02:19:24;;;;;;;;;26.00;22.00;;;;;;;;5089062;28;8869;-78
2023/01/18 02:21:53;;;;;;;;;24.00;24.00;;;;;;;;5069402;28;8874;-78
2023/01/18 02:24:58;;;;;;;;;32.67;27.67;;;;;;;;5086962;28;8838;-78
2023/01/18 02:27:28;;;;;;;;;29.67;25.33;;;;;;;;5038504;28;8865;-78
2023/01/18 02:30:09;;;;;;;;;29.67;27.67;;;;;;;;5076711;28;8847;-78
2023/01/18 02:33:00;;;;;;;;;37.00;26.00;;;;;;;;5063410;28;8837;-77
2023/01/18 02:35:38;;;;;;;;;24.33;22.33;;;;;;;;5080619;28;8873;-79
2023/01/18 02:38:10;;;;;;;;;23.33;21.33;;;;;;;;5063208;28;8858;-79
2023/01/18 02:40:45;;;;;;;;;27.33;27.33;;;;;;;;5082297;28;8931;-78
2023/01/18 02:48:46;;;;;;;;;24.00;19.33;;;;;;;;5083924;28;8800;-78
2023/01/18 02:51:14;;;;;;;;;24.33;23.67;;;;;;;;5084100;28;9601;-78
2023/01/18 02:53:43;;;;;;;;;29.67;24.00;;;;;;;;5083986;28;8849;-78
2023/01/18 02:56:14;;;;;;;;;24.00;20.33;;;;;;;;5085561;28;8832;-78
2023/01/18 02:58:45;;;;;;;;;21.67;21.67;;;;;;;;5081321;28;8892;-78
2023/01/18 03:01:21;;;;;;;;;24.67;24.67;;;;;;;;5084946;28;8875;-77
2023/01/18 03:03:49;;;;;;;;;23.33;19.67;;;;;;;;5084292;28;8838;-78
2023/01/18 03:06:17;;;;;;;;;27.67;24.67;;;;;;;;5066974;28;8860;-78
2023/01/18 03:08:48;;;;;;;;;22.00;19.00;;;;;;;;5064006;28;8809;-78
2023/01/18 03:11:19;;;;;;;;;25.00;22.00;;;;;;;;5082301;27;8938;-78
2023/01/18 03:14:12;;;;;;;;;27.33;25.00;;;;;;;;5102605;27;8833;-77
2023/01/18 03:16:57;;;;;;;;;23.67;22.00;;;;;;;;5102460;27;8837;-77
2023/01/18 03:23:36;;;;;;;;;22.33;21.00;;;;;;;;5103837;27;8821;-77
2023/01/18 03:25:12;;;;;;;;;21.00;21.00;;;;;;;;5103769;27;8829;-78
2023/01/18 03:36:00;;;;;;;;;22.00;18.00;;;;;;;;5100737;28;8829;-78
2023/01/18 03:38:29;;;;;;;;;21.00;15.67;;;;;;;;5100188;28;8849;-78
2023/01/18 03:40:57;;;;;;;;;24.67;18.00;;;;;;;;5101822;28;8866;-78
2023/01/18 03:43:26;;;;;;;;;18.67;17.33;;;;;;;;5102309;28;8838;-78
2023/01/18 03:45:54;;;;;;;;;23.00;19.67;;;;;;;;5101948;28;8861;-77
2023/01/18 03:48:23;;;;;;;;;20.00;18.67;;;;;;;;5101994;28;8862;-78
2023/01/18 03:50:53;;;;;;;;;20.67;17.00;;;;;;;;5100987;28;8846;-78
2023/01/18 03:53:28;;;;;;;;;18.33;17.67;;;;;;;;5101361;28;8861;-78
2023/01/18 03:56:00;;;;;;;;;25.33;21.00;;;;;;;;5099470;28;8874;-78
2023/01/18 03:58:32;;;;;;;;;27.67;21.00;;;;;;;;5098408;28;8834;-78
2023/01/18 04:01:02;;;;;;;;;33.00;27.67;;;;;;;;5101896;28;8806;-78
2023/01/18 04:03:32;;;;;;;;;18.67;18.67;;;;;;;;5098424;28;8846;-78
2023/01/18 04:05:59;;;;;;;;;22.33;22.33;;;;;;;;5101398;28;8873;-78
2023/01/18 04:08:27;;;;;;;;;8.33;8.33;;;;;;;;5092955;28;9714;-78
2023/01/18 04:10:54;;;;;;;;;34.67;27.00;;;;;;;;5097138;28;8875;-77
2023/01/18 04:13:22;;;;;;;;;28.67;22.00;;;;;;;;5101286;28;8845;-78
2023/01/18 04:15:49;;;;;;;;;20.00;17.00;;;;;;;;5095467;28;9619;-78
2023/01/18 04:18:16;;;;;;;;;26.67;26.67;;;;;;;;5100222;28;8946;-78
2023/01/18 04:20:45;;;;;;;;;29.33;22.33;;;;;;;;5097164;28;8887;-77
2023/01/18 04:23:13;;;;;;;;;29.33;26.33;;;;;;;;5098933;28;8829;-77
2023/01/18 04:25:48;;;;;;;;;21.33;21.33;;;;;;;;5100092;28;8845;-78
2023/01/18 04:28:23;;;;;;;;;27.33;21.00;;;;;;;;5099978;28;8865;-78
2023/01/18 04:30:52;;;;;;;;;22.33;22.33;;;;;;;;5100505;28;8806;-77
2023/01/18 04:33:20;;;;;;;;;24.67;23.33;;;;;;;;5104463;28;8858;-78
2023/01/18 04:35:53;;;;;;;;;25.00;25.00;;;;;;;;5102076;28;8881;-78
2023/01/18 04:38:21;;;;;;;;;27.67;27.67;;;;;;;;5102579;28;8826;-77
2023/01/18 04:40:48;;;;;;;;;26.67;25.33;;;;;;;;5103574;28;9757;-78
2023/01/18 04:43:16;;;;;;;;;22.33;22.33;;;;;;;;5103529;28;8841;-78
2023/01/18 04:45:45;;;;;;;;;25.33;25.33;;;;;;;;5103965;28;8849;-76
2023/01/18 04:48:12;;;;;;;;;30.67;30.33;;;;;;;;5101069;28;8972;-78
2023/01/18 04:50:44;;;;;;;;;30.33;30.33;;;;;;;;5102561;28;8856;-78
2023/01/18 04:53:13;;;;;;;;;28.67;28.00;;;;;;;;5102948;28;8833;-78
2023/01/18 04:55:40;;;;;;;;;24.00;24.00;;;;;;;;5099866;28;8841;-78
2023/01/18 04:58:08;;;;;;;;;31.33;30.67;;;;;;;;5101913;28;9686;-76
2023/01/18 05:00:38;;;;;;;;;32.33;27.67;;;;;;;;5098689;28;8801;-78
2023/01/18 05:03:06;;;;;;;;;26.00;26.00;;;;;;;;5099690;28;8853;-78
2023/01/18 05:05:33;;;;;;;;;38.00;34.00;;;;;;;;5102283;28;8836;-78
2023/01/18 05:08:00;;;;;;;;;37.33;31.33;;;;;;;;5104849;28;8899;-77
2023/01/18 05:10:30;;;;;;;;;32.33;31.00;;;;;;;;5099227;27;8866;-78
2023/01/18 05:12:57;;;;;;;;;38.33;34.33;;;;;;;;5104368;28;8841;-78
2023/01/18 05:15:24;;;;;;;;;23.67;23.67;;;;;;;;5104510;28;8853;-77
2023/01/18 05:17:53;;;;;;;;;40.00;30.67;;;;;;;;5104685;28;8833;-78
2023/01/18 05:20:20;;;;;;;;;37.00;32.67;;;;;;;;5102886;28;8834;-77
2023/01/18 05:22:48;;;;;;;;;28.33;26.33;;;;;;;;5104955;28;8976;-78
2023/01/18 05:25:15;;;;;;;;;38.00;33.67;;;;;;;;5102702;28;8845;-77
2023/01/18 05:27:44;;;;;;;;;34.00;32.33;;;;;;;;5103246;28;8964;-78
2023/01/18 05:30:12;;;;;;;;;34.00;31.33;;;;;;;;5101862;27;8841;-77
2023/01/18 05:32:40;;;;;;;;;35.33;33.67;;;;;;;;5117479;27;8946;-78
2023/01/18 05:35:08;;;;;;;;;42.33;37.00;;;;;;;;5101713;28;8850;-77
2023/01/18 05:37:35;;;;;;;;;45.67;33.67;;;;;;;;5103690;28;8856;-77
2023/01/18 05:40:03;;;;;;;;;39.00;33.67;;;;;;;;5103614;28;8930;-78
2023/01/18 05:42:30;;;;;;;;;30.67;28.33;;;;;;;;5098143;28;8918;-78
2023/01/18 05:45:01;;;;;;;;;31.00;26.67;;;;;;;;5103028;27;8839;-78
2023/01/18 05:47:28;;;;;;;;;37.33;34.00;;;;;;;;5099754;28;8867;-77
2023/01/18 05:49:56;;;;;;;;;40.67;34.33;;;;;;;;5102543;28;8931;-78
2023/01/18 05:52:24;;;;;;;;;30.00;29.67;;;;;;;;5103389;28;8829;-77
2023/01/18 05:54:51;;;;;;;;;35.67;29.67;;;;;;;;5100689;28;8857;-77
2023/01/18 05:57:18;;;;;;;;;35.67;31.67;;;;;;;;5102141;27;9734;-78
2023/01/18 05:59:46;;;;;;;;;36.00;33.67;;;;;;;;5100739;28;8837;-80
2023/01/18 06:02:14;;;;;;;;;35.67;33.00;;;;;;;;5097844;28;8817;-80
2023/01/18 06:04:43;;;;;;;;;29.67;29.67;;;;;;;;5098015;28;8865;-81
2023/01/18 06:07:11;;;;;;;;;33.00;27.67;;;;;;;;5100482;28;8889;-81
2023/01/18 06:09:39;;;;;;;;;35.67;35.67;;;;;;;;5100089;28;9655;-81
2023/01/18 06:12:07;;;;;;;;;35.33;31.67;;;;;;;;5099915;28;8893;-81
2023/01/18 06:14:34;;;;;;;;;29.00;25.67;;;;;;;;5099231;28;8921;-80
2023/01/18 06:17:02;;;;;;;;;35.33;31.33;;;;;;;;5081835;28;8831;-78
2023/01/18 06:19:31;;;;;;;;;27.00;25.00;;;;;;;;5100197;28;8861;-79
2023/01/18 06:22:03;;;;;;;;;36.67;35.33;;;;;;;;5097751;28;8842;-79
2023/01/18 06:24:31;;;;;;;;;33.67;28.67;;;;;;;;5097803;28;8973;-79
2023/01/18 06:26:59;;;;;;;;;18.67;17.00;;;;;;;;5098702;28;8887;-79
2023/01/18 06:29:26;;;;;;;;;41.00;34.67;;;;;;;;5098915;28;8957;-79
2023/01/18 06:31:54;;;;;;;;;28.00;28.00;;;;;;;;5083551;28;8906;-78
2023/01/18 06:34:26;;;;;;;;;27.33;27.33;;;;;;;;5101825;28;8854;-78
2023/01/18 06:36:56;;;;;;;;;35.00;28.67;;;;;;;;5100280;28;8853;-79
2023/01/18 06:39:23;;;;;;;;;36.33;31.33;;;;;;;;5081792;28;8999;-78
2023/01/18 06:41:51;;;;;;;;;50.67;47.00;;;;;;;;5097492;28;8857;-79
2023/01/18 06:44:18;;;;;;;;;37.00;36.00;;;;;;;;5101968;28;8834;-78
2023/01/18 06:46:46;;;;;;;;;34.33;33.00;;;;;;;;5100112;28;8837;-77
2023/01/18 06:49:16;;;;;;;;;44.33;42.33;;;;;;;;5102499;28;8834;-79
2023/01/18 06:51:44;;;;;;;;;44.33;41.67;;;;;;;;5101500;28;8846;-78
2023/01/18 06:54:16;;;;;;;;;51.00;44.67;;;;;;;;5097546;28;8857;-78
2023/01/18 06:56:44;;;;;;;;;52.00;45.00;;;;;;;;5095532;28;8842;-78
2023/01/18 06:59:12;;;;;;;;;57.67;50.00;;;;;;;;5100573;28;8831;-78
2023/01/18 07:01:39;;;;;;;;;50.67;44.33;;;;;;;;5101057;27;9623;-77
2023/01/18 07:04:07;;;;;;;;;45.67;42.00;;;;;;;;5100891;28;8978;-78
2023/01/18 07:06:35;;;;;;;;;46.00;43.00;;;;;;;;5099534;28;8842;-79
2023/01/18 07:09:06;;;;;;;;;47.00;42.00;;;;;;;;5099704;28;8848;-82
2023/01/18 07:11:36;;;;;;;;;40.67;40.67;;;;;;;;5100657;28;8834;-78
2023/01/18 07:14:03;;;;;;;;;1.00;1.00;;;;;;;;5098501;28;8857;-75
2023/01/18 07:16:38;;;;;;;;;71.75;57.00;;;;;;;;5103080;28;8914;-76
2023/01/18 07:19:05;;;;;;;;;49.67;43.00;;;;;;;;5106119;28;9648;-76
2023/01/18 07:21:33;;;;;;;;;41.00;36.33;;;;;;;;5099590;28;8865;-76
2023/01/18 07:24:00;;;;;;;;;51.67;47.00;;;;;;;;5100660;28;9681;-76
2023/01/18 07:26:28;;;;;;;;;50.00;45.00;;;;;;;;5099398;28;8868;-75
2023/01/18 07:28:57;;;;;;;;;58.67;48.33;;;;;;;;5098737;28;8850;-72
2023/01/18 07:31:25;;;;;;;;;75.33;57.33;;;;;;;;5100454;28;9600;-74
2023/01/18 07:33:52;;;;;;;;;48.33;41.00;;;;;;;;5083743;28;8846;-74
2023/01/18 07:36:21;;;;;;;;;26.67;24.00;;;;;;;;5098642;28;8873;-74
2023/01/18 07:38:48;;;;;;;;;30.00;28.00;;;;;;;;5101504;28;8825;-75
2023/01/18 07:41:16;;;;;;;;;31.00;30.00;;;;;;;;5100056;28;8888;-74
2023/01/18 07:43:44;;;;;;;;;23.67;23.67;;;;;;;;5099115;28;8892;-74
2023/01/18 07:46:16;;;;;;;;;28.67;27.67;;;;;;;;5101021;28;8946;-74
2023/01/18 07:48:43;;;;;;;;;28.33;23.33;;;;;;;;5099639;28;8845;-74
2023/01/18 07:51:11;;;;;;;;;39.67;32.00;;;;;;;;5101510;28;8842;-74
2023/01/18 07:53:39;;;;;;;;;30.33;27.67;;;;;;;;5100582;28;8819;-73
2023/01/18 07:56:08;;;;;;;;;28.33;27.00;;;;;;;;5101242;28;8854;-73
2023/01/18 07:58:36;;;;;;;;;34.33;32.33;;;;;;;;5103801;28;8833;-74
2023/01/18 08:01:04;;;;;;;;;37.67;33.67;;;;;;;;5102271;28;8869;-77
2023/01/18 08:03:33;;;;;;;;;40.00;34.67;;;;;;;;5101660;28;8877;-73
2023/01/18 08:06:02;;;;;;;;;32.67;28.00;;;;;;;;5101871;28;8853;-73
2023/01/18 08:08:30;;;;;;;;;34.33;34.00;;;;;;;;5104444;28;8854;-72
2023/01/18 08:10:58;;;;;;;;;43.00;33.33;;;;;;;;5103679;28;8860;-73
2023/01/18 08:13:27;;;;;;;;;22.67;17.33;;;;;;;;5103846;28;8842;-74
2023/01/18 08:15:55;;;;;;;;;32.33;30.00;;;;;;;;5102175;28;8838;-75
2023/01/18 08:18:23;;;;;;;;;54.00;41.00;;;;;;;;5104446;28;9679;-74
2023/01/18 08:20:52;;;;;;;;;68.33;54.67;;;;;;;;5102809;28;8842;-74
2023/01/18 08:23:19;;;;;;;;;60.33;53.33;;;;;;;;5103105;28;8891;-72
2023/01/18 08:25:47;;;;;;;;;77.33;57.67;;;;;;;;5103023;28;8841;-72
2023/01/18 08:28:15;;;;;;;;;56.67;45.00;;;;;;;;5100276;28;8841;-73
2023/01/18 08:30:44;;;;;;;;;52.67;47.00;;;;;;;;5103260;27;8851;-74
2023/01/18 08:33:11;;;;;;;;;54.67;46.67;;;;;;;;5102387;28;8859;-74
2023/01/18 08:35:41;;;;;;;;;53.00;44.33;;;;;;;;5103481;27;8845;-75
2023/01/18 08:38:11;;;;;;;;;30.67;25.00;;;;;;;;5100826;28;9004;-72
2023/01/18 08:40:39;;;;;;;;;46.33;42.33;;;;;;;;5101765;28;8837;-72
2023/01/18 08:43:06;;;;;;;;;35.00;34.00;;;;;;;;5098586;28;8826;-72
2023/01/18 08:45:34;;;;;;;;;50.00;42.33;;;;;;;;5098388;27;8872;-72
2023/01/18 08:48:04;;;;;;;;;47.67;41.00;;;;;;;;5097880;28;8908;-72
2023/01/18 08:50:32;;;;;;;;;41.67;39.67;;;;;;;;5101610;28;8868;-72
2023/01/18 08:52:59;;;;;;;;;41.00;37.67;;;;;;;;5104178;28;8860;-72
2023/01/18 08:55:29;;;;;;;;;41.00;37.33;;;;;;;;5102370;28;8996;-72
2023/01/18 08:57:57;;;;;;;;;28.00;26.33;;;;;;;;5096640;28;8832;-72
2023/01/18 09:00:27;;;;;;;;;32.00;29.33;;;;;;;;5099045;28;8895;-72
2023/01/18 09:02:54;;;;;;;;;25.67;24.00;;;;;;;;5102173;28;9611;-72
2023/01/18 09:05:23;;;;;;;;;23.33;21.33;;;;;;;;5100057;28;8879;-72
2023/01/18 09:07:50;;;;;;;;;25.00;22.00;;;;;;;;5100188;28;8984;-72
2023/01/18 09:10:20;;;;;;;;;15.67;15.67;;;;;;;;5100964;28;9691;-72
2023/01/18 09:12:49;;;;;;;;;27.00;25.67;;;;;;;;5098167;28;8858;-72
2023/01/18 09:15:17;;;;;;;;;22.00;22.00;;;;;;;;5101392;28;8854;-72
2023/01/18 09:17:44;;;;;;;;;22.67;22.67;;;;;;;;5098688;28;8877;-72
2023/01/18 09:20:12;;;;;;;;;24.33;24.33;;;;;;;;5099074;28;8862;-72
2023/01/18 09:22:41;;;;;;;;;25.33;22.00;;;;;;;;5102324;28;8896;-72
2023/01/18 09:25:10;;;;;;;;;33.67;27.00;;;;;;;;5099467;28;8896;-72
2023/01/18 09:27:37;;;;;;;;;24.00;23.33;;;;;;;;5096848;27;8913;-71
2023/01/18 09:30:08;;;;;;;;;22.67;21.00;;;;;;;;5102383;27;8846;-72
2023/01/18 09:32:36;;;;;;;;;34.33;28.67;;;;;;;;5095046;28;8875;-74
2023/01/18 09:35:03;;;;;;;;;28.67;25.67;;;;;;;;5094914;27;8853;-72
2023/01/18 09:37:31;;;;;;;;;33.67;27.33;;;;;;;;5092171;27;8869;-75
2023/01/18 09:39:59;;;;;;;;;31.33;24.67;;;;;;;;5092536;28;8853;-73
2023/01/18 09:42:35;;;;;;;;;35.00;32.33;;;;;;;;5096236;28;8872;-73
2023/01/18 09:45:03;;;;;;;;;24.67;24.00;;;;;;;;5092538;27;8877;-72
2023/01/18 09:47:35;;;;;;;;;34.00;29.33;;;;;;;;5094526;28;8869;-72
2023/01/18 09:50:09;;;;;;;;;26.67;26.00;;;;;;;;5099058;28;8957;-73
2023/01/18 09:52:44;;;;;;;;;28.33;26.33;;;;;;;;5094664;28;11665;-72
2023/01/18 09:55:18;;;;;;;;;27.00;21.33;;;;;;;;5096703;28;8846;-72
2023/01/18 09:58:00;;;;;;;;;28.67;27.33;;;;;;;;5097721;27;11529;-72
2023/01/18 10:00:30;;;;;;;;;20.33;20.00;;;;;;;;5096188;27;11490;-72
2023/01/18 10:03:03;;;;;;;;;30.33;26.33;;;;;;;;5095404;28;11554;-72
2023/01/18 10:05:34;;;;;;;;;30.33;29.33;;;;;;;;5098987;28;11575;-72
2023/01/18 10:08:06;;;;;;;;;33.67;27.00;;;;;;;;5099951;28;11582;-72
2023/01/18 10:10:38;;;;;;;;;38.33;37.00;;;;;;;;5098458;28;11568;-72
2023/01/18 10:13:29;;;;;;;;;27.00;27.00;;;;;;;;5096576;28;11623;-72
2023/01/18 10:15:56;;;;;;;;;43.00;37.00;;;;;;;;5087155;28;11543;-72
2023/01/18 10:18:26;;;;;;;;;35.67;32.67;;;;;;;;5090309;28;11585;-72
2023/01/18 10:20:58;;;;;;;;;42.00;38.00;;;;;;;;5077412;28;11576;-73
2023/01/18 10:23:30;;;;;;;;;37.67;33.67;;;;;;;;5098788;28;11576;-71
2023/01/18 10:25:59;;;;;;;;;37.00;32.00;;;;;;;;5100975;28;11551;-74
2023/01/18 10:28:37;;;;;;;;;38.00;33.33;;;;;;;;5100042;28;11679;-72
2023/01/18 10:31:17;;;;;;;;;30.67;26.33;;;;;;;;5100208;28;11527;-71
2023/01/18 10:33:47;;;;;;;;;37.67;30.67;;;;;;;;5097046;28;12494;-72
2023/01/18 10:36:17;;;;;;;;;34.33;34.33;;;;;;;;5097620;28;11580;-71
2023/01/18 10:38:45;;;;;;;;;44.00;38.67;;;;;;;;5096258;28;11558;-72
2023/01/18 10:41:19;;;;;;;;;38.00;34.00;;;;;;;;5100034;28;11566;-71
2023/01/18 10:43:46;;;;;;;;;38.00;32.50;;;;;;;;5100615;28;11556;-73
2023/01/18 10:46:15;;;;;;;;;45.33;40.00;;;;;;;;5098983;28;11557;-72
2023/01/18 10:48:47;;;;;;;;;32.00;31.00;;;;;;;;5099263;28;11561;-72
2023/01/18 10:51:35;;;;;;;;;35.00;33.25;;;;;;;;5099493;28;11542;-72
2023/01/18 10:54:23;;;;;;;;;27.00;26.25;;;;;;;;5101683;27;11569;-71
2023/01/18 10:56:51;;;;;;;;;26.75;24.75;;;;;;;;5094988;28;11501;-71
2023/01/18 10:59:25;;;;;;;;;33.00;29.25;;;;;;;;5099265;28;11563;-71
2023/01/18 11:01:55;;;;;;;;;39.50;31.50;;;;;;;;5097728;27;11621;-71
2023/01/18 11:04:28;;;;;;;;;34.75;31.75;;;;;;;;5098804;28;12327;-71
2023/01/18 11:06:57;;;;;;;;;29.00;29.00;;;;;;;;5098630;28;11556;-71
2023/01/18 11:09:47;;;;;;;;;24.50;24.50;;;;;;;;5097725;28;11567;-72
2023/01/18 11:12:36;;;;;;;;;34.75;34.25;;;;;;;;5096933;28;11588;-71
2023/01/18 11:15:25;;;;;;;;;29.75;29.75;;;;;;;;5097097;28;11560;-71
2023/01/18 11:18:09;;;;;;;;;30.75;27.25;;;;;;;;5090318;28;11586;-71
2023/01/18 11:20:48;;;;;;;;;27.50;26.00;;;;;;;;5095315;28;11963;-71
2023/01/18 11:23:24;;;;;;;;;28.75;24.75;;;;;;;;5098326;28;12424;-71
2023/01/18 11:26:00;;;;;;;;;27.25;22.00;;;;;;;;5099872;28;12438;-71
2023/01/18 11:28:31;;;;;;;;;26.50;24.75;;;;;;;;5094662;28;11572;-71
2023/01/18 11:31:05;;;;;;;;;21.75;20.25;;;;;;;;5098775;27;11492;-71
2023/01/18 11:33:33;;;;;;;;;23.50;21.50;;;;;;;;5099382;28;11530;-72
2023/01/18 11:36:06;;;;;;;;;25.50;21.25;;;;;;;;5097787;28;12369;-72
2023/01/18 11:38:34;;;;;;;;;24.25;22.75;;;;;;;;5095850;28;11558;-71
2023/01/18 11:41:04;;;;;;;;;26.75;21.50;;;;;;;;5098548;28;11499;-71
2023/01/18 11:43:34;;;;;;;;;29.00;27.50;;;;;;;;5098585;28;11510;-71
2023/01/18 11:46:06;;;;;;;;;29.00;22.25;;;;;;;;5099734;28;11579;-71
2023/01/18 11:48:39;;;;;;;;;23.25;22.00;;;;;;;;5090657;28;11567;-71
2023/01/18 11:51:14;;;;;;;;;24.50;22.50;;;;;;;;5096584;28;11665;-71
2023/01/18 11:53:46;;;;;;;;;23.75;20.50;;;;;;;;5099873;28;11544;-71
2023/01/18 11:56:19;;;;;;;;;23.00;18.00;;;;;;;;5090933;28;11534;-70
2023/01/18 11:58:52;;;;;;;;;19.00;17.00;;;;;;;;5098767;28;11534;-71
2023/01/18 12:01:53;;;;;;;;;18.25;18.25;;;;;;;;5089935;27;11615;-73
2023/01/18 12:04:32;;;;;;;;;18.75;17.50;;;;;;;;5097991;28;11558;-72
2023/01/18 12:07:10;;;;;;;;;17.25;17.25;;;;;;;;5094868;28;11510;-73
2023/01/18 12:09:46;;;;;;;;;20.00;18.50;;;;;;;;5095388;28;11518;-74
2023/01/18 12:12:30;;;;;;;;;19.00;16.75;;;;;;;;5098452;28;11619;-74
2023/01/18 12:15:12;;;;;;;;;18.50;16.25;;;;;;;;5098752;28;11526;-71
2023/01/18 12:17:52;;;;;;;;;18.25;16.00;;;;;;;;5096799;28;12255;-71
2023/01/18 12:20:28;;;;;;;;;13.75;13.00;;;;;;;;5093979;27;11555;-72
2023/01/18 12:23:24;;;;;;;;;16.00;14.25;;;;;;;;5097006;28;11477;-75
2023/01/18 12:26:17;;;;;;;;;18.00;15.50;;;;;;;;5081500;28;11449;-74
2023/01/18 12:28:57;;;;;;;;;17.50;14.75;;;;;;;;5093278;28;11517;-72
2023/01/18 12:31:37;;;;;;;;;15.75;13.00;;;;;;;;5092513;28;11455;-73
2023/01/18 12:34:12;;;;;;;;;14.75;14.25;;;;;;;;5100550;28;11483;-71
2023/01/18 12:37:00;;;;;;;;;16.25;16.25;;;;;;;;5095380;28;12317;-72
2023/01/18 12:39:45;;;;;;;;;14.75;13.00;;;;;;;;5095443;28;11474;-70
2023/01/18 12:42:19;;;;;;;;;15.75;13.75;;;;;;;;5096761;28;11432;-71
2023/01/18 12:45:01;;;;;;;;;18.25;13.75;;;;;;;;5088852;28;11463;-72
2023/01/18 12:47:39;;;;;;;;;16.25;13.00;;;;;;;;5099340;28;11468;-72
2023/01/18 12:50:15;;;;;;;;;18.00;13.50;;;;;;;;5103751;28;11450;-71
2023/01/18 12:52:48;;;;;;;;;12.75;12.75;;;;;;;;5102975;28;11844;-72
2023/01/18 12:55:20;;;;;;;;;16.50;12.50;;;;;;;;5092963;28;11469;-72
2023/01/18 12:57:49;;;;;;;;;10.75;10.00;;;;;;;;5102495;28;11443;-72
2023/01/18 13:00:20;;;;;;;;;13.75;13.75;;;;;;;;5092238;27;11490;-72
2023/01/18 13:02:50;;;;;;;;;13.50;9.50;;;;;;;;5098875;28;11505;-73
2023/01/18 13:05:20;;;;;;;;;4.00;4.00;;;;;;;;5097008;28;12824;-71
2023/01/18 13:07:51;;;;;;;;;13.00;11.00;;;;;;;;5096934;27;11590;-72
2023/01/18 13:10:24;;;;;;;;;8.25;8.25;;;;;;;;5101311;28;11467;-72
2023/01/18 13:12:52;;;;;;;;;10.75;10.75;;;;;;;;5102910;28;11401;-72
2023/01/18 13:15:29;;;;;;;;;8.75;8.75;;;;;;;;5096562;28;12420;-72
2023/01/18 13:18:04;;;;;;;;;13.00;11.75;;;;;;;;5099280;28;11547;-72
2023/01/18 13:20:41;;;;;;;;;10.25;10.25;;;;;;;;5065912;28;11508;-72
2023/01/18 13:23:19;;;;;;;;;9.75;9.75;;;;;;;;5082870;28;11485;-72
2023/01/18 13:25:53;;;;;;;;;11.25;11.25;;;;;;;;5101821;28;11436;-72
2023/01/18 13:28:22;;;;;;;;;9.50;9.50;;;;;;;;5090894;28;11477;-72
2023/01/18 13:30:55;;;;;;;;;7.75;7.75;;;;;;;;5097042;28;11444;-72
2023/01/18 13:33:24;;;;;;;;;6.00;6.00;;;;;;;;5103295;27;11439;-71
2023/01/18 13:35:54;;;;;;;;;10.00;8.25;;;;;;;;5098800;28;11431;-72
2023/01/18 13:38:26;;;;;;;;;7.00;7.00;;;;;;;;5100215;28;11387;-72
2023/01/18 13:40:57;;;;;;;;;6.50;6.50;;;;;;;;5099957;28;11091;-72
2023/01/18 13:43:31;;;;;;;;;9.75;6.75;;;;;;;;5101632;28;11473;-70
2023/01/18 13:46:04;;;;;;;;;9.25;6.00;;;;;;;;5099473;28;11153;-72
2023/01/18 13:48:45;;;;;;;;;7.00;7.00;;;;;;;;5095065;28;10890;-73
2023/01/18 13:51:50;;;;;;;;;3.25;3.25;;;;;;;;5102667;28;11015;-72
2023/01/18 13:54:56;;;;;;;;;2.75;2.75;;;;;;;;5095558;28;10722;-73
2023/01/18 13:57:25;;;;;;;;;2.50;2.50;;;;;;;;5101717;28;10818;-73
2023/01/18 13:59:53;;;;;;;;;2.25;2.00;;;;;;;;5102471;28;10794;-73
2023/01/18 14:02:25;;;;;;;;;2.50;2.50;;;;;;;;5094722;28;10554;-74
2023/01/18 14:05:07;;;;;;;;;2.00;0.25;;;;;;;;5099100;28;10660;-73
2023/01/18 14:07:40;;;;;;;;;2.25;2.00;;;;;;;;5095223;28;10676;-73
2023/01/18 14:10:19;;;;;;;;;2.00;2.00;;;;;;;;5101034;28;10717;-72
2023/01/18 14:12:50;;;;;;;;;2.75;2.75;;;;;;;;5094390;28;10760;-72
2023/01/18 14:15:27;;;;;;;;;2.00;2.00;;;;;;;;5091952;28;10854;-72
2023/01/18 14:17:55;;;;;;;;;2.00;2.00;;;;;;;;5100997;28;11442;-73
2023/01/18 14:20:56;;;;;;;;;2.00;2.00;;;;;;;;5102539;28;10551;-73
2023/01/18 14:23:38;;;;;;;;;2.00;2.00;;;;;;;;5098821;28;10722;-72
2023/01/18 14:26:07;;;;;;;;;2.00;2.00;;;;;;;;5100414;28;10757;-72
2023/01/18 14:28:48;;;;;;;;;1.75;1.75;;;;;;;;5098195;28;10817;-72
2023/01/18 14:31:19;;;;;;;;;1.00;1.00;;;;;;;;5094228;28;10746;-72
2023/01/18 14:33:48;;;;;;;;;0.00;0.00;;;;;;;;5100621;28;10715;-72
2023/01/18 14:36:26;;;;;;;;;1.00;1.00;;;;;;;;5097894;28;10743;-72
2023/01/18 14:39:11;;;;;;;;;1.50;1.00;;;;;;;;5102256;28;10804;-73
2023/01/18 14:41:42;;;;;;;;;0.50;0.50;;;;;;;;5101175;28;10804;-72
2023/01/18 14:44:16;;;;;;;;;2.75;1.00;;;;;;;;5100359;28;10711;-73
2023/01/18 14:46:49;;;;;;;;;0.50;0.50;;;;;;;;5100692;28;10796;-72
2023/01/18 14:49:19;;;;;;;;;1.50;1.50;;;;;;;;5101447;28;10660;-72
2023/01/18 14:51:48;;;;;;;;;2.00;2.00;;;;;;;;5095333;28;10833;-72
2023/01/18 14:54:18;;;;;;;;;1.75;1.75;;;;;;;;5097109;28;10722;-72
2023/01/18 14:56:45;;;;;;;;;0.50;0.50;;;;;;;;5100012;28;10922;-72
2023/01/18 14:59:22;;;;;;;;;1.00;1.00;;;;;;;;5093972;28;10795;-72
2023/01/18 15:01:54;;;;;;;;;3.00;2.00;;;;;;;;5096211;28;11347;-72
2023/01/18 15:04:23;;;;;;;;;1.00;1.00;;;;;;;;5097831;28;11008;-72
2023/01/18 15:06:54;;;;;;;;;1.00;1.00;;;;;;;;5099079;28;11011;-72
2023/01/18 15:09:23;;;;;;;;;0.00;0.00;;;;;;;;5123972;27;11083;-72
2023/01/18 15:11:52;;;;;;;;;1.00;1.00;;;;;;;;5098413;28;11014;-72
2023/01/18 15:14:23;;;;;;;;;1.00;1.00;;;;;;;;5101867;28;11394;-72
2023/01/18 15:16:53;;;;;;;;;0.00;0.00;;;;;;;;5092344;28;11473;-72
2023/01/18 15:19:22;;;;;;;;;1.50;1.00;;;;;;;;5098767;28;11389;-72
2023/01/18 15:21:50;;;;;;;;;2.00;2.00;;;;;;;;5095405;28;11458;-72
2023/01/18 15:24:20;;;;;;;;;1.00;1.00;;;;;;;;5100532;28;12250;-71
2023/01/18 15:26:51;;;;;;;;;1.00;1.00;;;;;;;;5093534;28;11442;-72
2023/01/18 15:29:23;;;;;;;;;1.00;1.00;;;;;;;;5098328;28;11856;-71